sensor_id;sensor_type;location;lat;lon;timestamp;pressure;altitude;pressure_sealevel;temperature;humidity
72330;BME280;69154;52.076;5.110;2023-05-02T00:00:50;102113.17;;;9.26;36.69
72330;BME280;69154;52.076;5.110;2023-05-02T00:03:16;102108.03;;;9.73;36.89
72330;BME280;69154;52.076;5.110;2023-05-02T00:05:43;102102.27;;;8.95;36.88
72330;BME280;69154;52.076;5.110;2023-05-02T00:08:06;102100.07;;;10.54;35.48
72330;BME280;69154;52.076;5.110;2023-05-02T00:10:33;102099.81;;;10.09;36.24
72330;BME280;69154;52.076;5.110;2023-05-02T00:12:57;102099.72;;;9.06;36.54
72330;BME280;69154;52.076;5.110;2023-05-02T00:15:23;102098.47;;;10.84;35.14
72330;BME280;69154;52.076;5.110;2023-05-02T00:17:48;102096.95;;;10.11;35.03
72330;BME280;69154;52.076;5.110;2023-05-02T00:20:13;102101.69;;;10.81;35.27
72330;BME280;69154;52.076;5.110;2023-05-02T00:22:39;102099.96;;;10.00;35.92
72330;BME280;69154;52.076;5.110;2023-05-02T00:25:06;102100.26;;;9.65;35.82
72330;BME280;69154;52.076;5.110;2023-05-02T00:27:31;102105.00;;;9.71;36.72
72330;BME280;69154;52.076;5.110;2023-05-02T00:29:56;102108.47;;;8.57;37.37
72330;BME280;69154;52.076;5.110;2023-05-02T00:32:22;102108.04;;;10.31;35.94
72330;BME280;69154;52.076;5.110;2023-05-02T00:34:47;102107.19;;;10.20;35.33
72330;BME280;69154;52.076;5.110;2023-05-02T00:37:12;102106.48;;;10.26;35.81
72330;BME280;69154;52.076;5.110;2023-05-02T00:39:38;102110.98;;;9.99;36.22
72330;BME280;69154;52.076;5.110;2023-05-02T00:42:03;102108.34;;;9.87;36.00
72330;BME280;69154;52.076;5.110;2023-05-02T00:44:29;102107.80;;;9.74;36.29
72330;BME280;69154;52.076;5.110;2023-05-02T00:46:54;102112.13;;;8.72;36.95
72330;BME280;69154;52.076;5.110;2023-05-02T00:49:20;102111.44;;;9.61;37.49
72330;BME280;69154;52.076;5.110;2023-05-02T00:51:45;102117.95;;;8.93;37.38
72330;BME280;69154;52.076;5.110;2023-05-02T00:54:11;102117.90;;;8.68;38.93
72330;BME280;69154;52.076;5.110;2023-05-02T00:56:36;102125.38;;;9.00;38.85
72330;BME280;69154;52.076;5.110;2023-05-02T00:59:01;102122.75;;;7.77;39.95
72330;BME280;69154;52.076;5.110;2023-05-02T01:01:35;102124.10;;;8.37;39.62
72330;BME280;69154;52.076;5.110;2023-05-02T01:03:59;102123.58;;;7.55;40.24
72330;BME280;69154;52.076;5.110;2023-05-02T01:06:27;102126.58;;;7.20;41.98
72330;BME280;69154;52.076;5.110;2023-05-02T01:08:51;102127.03;;;8.13;39.77
72330;BME280;69154;52.076;5.110;2023-05-02T01:11:15;102134.37;;;8.36;38.80
72330;BME280;69154;52.076;5.110;2023-05-02T01:13:34;102136.99;;;9.17;38.29
72330;BME280;69154;52.076;5.110;2023-05-02T01:16:01;102136.11;;;9.34;37.68
72330;BME280;69154;52.076;5.110;2023-05-02T01:18:28;102143.41;;;9.73;37.26
72330;BME280;69154;52.076;5.110;2023-05-02T01:20:54;102145.68;;;8.49;37.96
72330;BME280;69154;52.076;5.110;2023-05-02T01:23:22;102150.21;;;9.47;37.74
72330;BME280;69154;52.076;5.110;2023-05-02T01:25:51;102148.72;;;8.00;39.21
72330;BME280;69154;52.076;5.110;2023-05-02T01:28:15;102149.05;;;8.21;40.05
72330;BME280;69154;52.076;5.110;2023-05-02T01:30:35;102154.58;;;7.90;40.85
72330;BME280;69154;52.076;5.110;2023-05-02T01:32:59;102154.12;;;7.31;41.11
72330;BME280;69154;52.076;5.110;2023-05-02T01:35:24;102157.63;;;8.13;40.28
72330;BME280;69154;52.076;5.110;2023-05-02T01:37:49;102161.54;;;7.22;40.58
72330;BME280;69154;52.076;5.110;2023-05-02T01:40:16;102165.67;;;7.92;40.81
72330;BME280;69154;52.076;5.110;2023-05-02T01:42:39;102173.25;;;7.27;41.85
72330;BME280;69154;52.076;5.110;2023-05-02T01:45:05;102172.66;;;6.55;42.74
72330;BME280;69154;52.076;5.110;2023-05-02T01:47:33;102176.29;;;7.07;42.40
72330;BME280;69154;52.076;5.110;2023-05-02T01:49:54;102180.69;;;7.21;40.60
72330;BME280;69154;52.076;5.110;2023-05-02T01:52:21;102181.67;;;6.34;42.34
72330;BME280;69154;52.076;5.110;2023-05-02T01:54:45;102180.60;;;7.42;39.92
72330;BME280;69154;52.076;5.110;2023-05-02T01:57:11;102186.72;;;7.52;40.22
72330;BME280;69154;52.076;5.110;2023-05-02T01:59:36;102179.53;;;7.36;40.51
72330;BME280;69154;52.076;5.110;2023-05-02T02:02:01;102180.31;;;7.50;39.72
72330;BME280;69154;52.076;5.110;2023-05-02T02:04:27;102185.12;;;7.93;39.62
72330;BME280;69154;52.076;5.110;2023-05-02T02:06:54;102187.16;;;6.35;39.71
72330;BME280;69154;52.076;5.110;2023-05-02T02:09:18;102191.43;;;7.66;39.23
72330;BME280;69154;52.076;5.110;2023-05-02T02:11:46;102195.46;;;5.74;40.63
72330;BME280;69154;52.076;5.110;2023-05-02T02:14:13;102203.22;;;6.55;39.93
72330;BME280;69154;52.076;5.110;2023-05-02T02:16:40;102210.30;;;8.75;37.53
72330;BME280;69154;52.076;5.110;2023-05-02T02:19:05;102217.56;;;6.90;38.69
72330;BME280;69154;52.076;5.110;2023-05-02T02:21:24;102219.99;;;7.10;38.51
72330;BME280;69154;52.076;5.110;2023-05-02T02:23:51;102231.57;;;7.02;37.80
72330;BME280;69154;52.076;5.110;2023-05-02T02:26:17;102233.83;;;7.75;37.18
72330;BME280;69154;52.076;5.110;2023-05-02T02:28:40;102230.76;;;7.64;36.49
72330;BME280;69154;52.076;5.110;2023-05-02T02:31:06;102233.70;;;7.09;37.21
72330;BME280;69154;52.076;5.110;2023-05-02T02:33:31;102229.19;;;6.68;38.22
72330;BME280;69154;52.076;5.110;2023-05-02T02:36:03;102233.34;;;5.59;38.26
72330;BME280;69154;52.076;5.110;2023-05-02T02:38:27;102236.40;;;5.77;38.27
72330;BME280;69154;52.076;5.110;2023-05-02T02:40:54;102242.39;;;5.52;37.93
72330;BME280;69154;52.076;5.110;2023-05-02T02:43:19;102247.58;;;6.45;37.34
72330;BME280;69154;52.076;5.110;2023-05-02T02:45:44;102249.27;;;7.45;36.64
72330;BME280;69154;52.076;5.110;2023-05-02T02:48:11;102248.02;;;7.54;35.63
72330;BME280;69154;52.076;5.110;2023-05-02T02:50:31;102251.53;;;8.25;34.79
72330;BME280;69154;52.076;5.110;2023-05-02T02:52:58;102254.36;;;7.17;36.24
72330;BME280;69154;52.076;5.110;2023-05-02T02:55:27;102253.92;;;7.82;34.61
72330;BME280;69154;52.076;5.110;2023-05-02T02:57:48;102253.84;;;8.62;33.32
72330;BME280;69154;52.076;5.110;2023-05-02T03:00:14;102262.34;;;8.64;33.21
72330;BME280;69154;52.076;5.110;2023-05-02T03:02:36;102266.32;;;7.39;34.69
72330;BME280;69154;52.076;5.110;2023-05-02T03:05:01;102269.22;;;7.24;35.09
72330;BME280;69154;52.076;5.110;2023-05-02T03:07:26;102268.42;;;8.10;34.08
72330;BME280;69154;52.076;5.110;2023-05-02T03:09:51;102272.01;;;7.03;35.23
72330;BME280;69154;52.076;5.110;2023-05-02T03:12:17;102271.81;;;6.80;36.08
72330;BME280;69154;52.076;5.110;2023-05-02T03:14:43;102278.94;;;6.72;35.58
72330;BME280;69154;52.076;5.110;2023-05-02T03:17:08;102281.62;;;7.67;34.56
72330;BME280;69154;52.076;5.110;2023-05-02T03:19:34;102282.44;;;7.67;34.65
72330;BME280;69154;52.076;5.110;2023-05-02T03:21:59;102284.95;;;7.23;34.75
72330;BME280;69154;52.076;5.110;2023-05-02T03:24:25;102286.45;;;7.65;34.90
72330;BME280;69154;52.076;5.110;2023-05-02T03:26:53;102292.10;;;7.37;34.08
72330;BME280;69154;52.076;5.110;2023-05-02T03:29:16;102294.05;;;7.31;34.81
72330;BME280;69154;52.076;5.110;2023-05-02T03:31:41;102305.24;;;6.69;34.37
72330;BME280;69154;52.076;5.110;2023-05-02T03:34:06;102307.86;;;7.55;33.60
72330;BME280;69154;52.076;5.110;2023-05-02T03:36:32;102312.07;;;7.07;34.28
72330;BME280;69154;52.076;5.110;2023-05-02T03:38:57;102313.14;;;5.79;35.59
72330;BME280;69154;52.076;5.110;2023-05-02T03:41:22;102316.32;;;6.32;35.84
72330;BME280;69154;52.076;5.110;2023-05-02T03:43:48;102313.62;;;6.37;35.11
72330;BME280;69154;52.076;5.110;2023-05-02T03:46:13;102312.28;;;7.63;33.76
72330;BME280;69154;52.076;5.110;2023-05-02T03:48:38;102311.87;;;7.02;33.64
72330;BME280;69154;52.076;5.110;2023-05-02T03:51:05;102315.22;;;7.51;33.60
72330;BME280;69154;52.076;5.110;2023-05-02T03:53:29;102316.88;;;7.80;32.57
72330;BME280;69154;52.076;5.110;2023-05-02T03:55:54;102317.04;;;8.09;31.03
72330;BME280;69154;52.076;5.110;2023-05-02T03:58:20;102316.94;;;7.71;31.95
72330;BME280;69154;52.076;5.110;2023-05-02T04:00:45;102319.52;;;6.98;32.05
72330;BME280;69154;52.076;5.110;2023-05-02T04:03:10;102323.32;;;7.12;32.35
72330;BME280;69154;52.076;5.110;2023-05-02T04:05:36;102324.41;;;7.52;32.47
72330;BME280;69154;52.076;5.110;2023-05-02T04:08:01;102325.05;;;7.01;32.46
72330;BME280;69154;52.076;5.110;2023-05-02T04:10:26;102328.13;;;8.63;30.41
72330;BME280;69154;52.076;5.110;2023-05-02T04:12:52;102333.87;;;7.31;30.67
72330;BME280;69154;52.076;5.110;2023-05-02T04:15:17;102340.45;;;8.15;31.27
72330;BME280;69154;52.076;5.110;2023-05-02T04:17:42;102338.38;;;6.78;31.76
72330;BME280;69154;52.076;5.110;2023-05-02T04:20:08;102343.04;;;6.81;33.16
72330;BME280;69154;52.076;5.110;2023-05-02T04:22:34;102345.84;;;7.25;32.83
72330;BME280;69154;52.076;5.110;2023-05-02T04:24:59;102351.29;;;6.65;33.20
72330;BME280;69154;52.076;5.110;2023-05-02T04:27:24;102358.12;;;5.98;34.84
72330;BME280;69154;52.076;5.110;2023-05-02T04:29:50;102362.85;;;5.52;34.59
72330;BME280;69154;52.076;5.110;2023-05-02T04:32:15;102367.00;;;6.25;34.44
72330;BME280;69154;52.076;5.110;2023-05-02T04:34:40;102367.78;;;6.01;34.62
72330;BME280;69154;52.076;5.110;2023-05-02T04:37:05;102372.16;;;6.12;33.60
72330;BME280;69154;52.076;5.110;2023-05-02T04:39:31;102375.68;;;8.29;32.48
72330;BME280;69154;52.076;5.110;2023-05-02T04:41:56;102378.65;;;6.81;33.84
72330;BME280;69154;52.076;5.110;2023-05-02T04:44:21;102385.97;;;7.38;33.59
72330;BME280;69154;52.076;5.110;2023-05-02T04:46:46;102390.82;;;7.86;33.01
72330;BME280;69154;52.076;5.110;2023-05-02T04:49:12;102389.60;;;8.24;32.33
72330;BME280;69154;52.076;5.110;2023-05-02T04:51:37;102390.14;;;7.16;33.35
72330;BME280;69154;52.076;5.110;2023-05-02T04:54:03;102391.41;;;7.10;34.09
72330;BME280;69154;52.076;5.110;2023-05-02T04:56:28;102402.75;;;6.70;35.22
72330;BME280;69154;52.076;5.110;2023-05-02T04:58:53;102403.30;;;6.96;34.31
72330;BME280;69154;52.076;5.110;2023-05-02T05:01:19;102409.13;;;6.52;35.26
72330;BME280;69154;52.076;5.110;2023-05-02T05:03:44;102410.87;;;6.89;34.80
72330;BME280;69154;52.076;5.110;2023-05-02T05:06:09;102414.17;;;8.53;32.72
72330;BME280;69154;52.076;5.110;2023-05-02T05:08:35;102415.63;;;8.21;33.24
72330;BME280;69154;52.076;5.110;2023-05-02T05:11:00;102416.02;;;8.31;32.53
72330;BME280;69154;52.076;5.110;2023-05-02T05:13:25;102424.25;;;8.48;32.16
72330;BME280;69154;52.076;5.110;2023-05-02T05:15:50;102422.80;;;8.41;32.17
72330;BME280;69154;52.076;5.110;2023-05-02T05:18:16;102429.63;;;8.05;33.03
72330;BME280;69154;52.076;5.110;2023-05-02T05:20:41;102428.28;;;8.32;32.22
72330;BME280;69154;52.076;5.110;2023-05-02T05:23:06;102429.12;;;9.05;31.54
72330;BME280;69154;52.076;5.110;2023-05-02T05:25:32;102431.30;;;8.42;32.45
72330;BME280;69154;52.076;5.110;2023-05-02T05:27:58;102431.93;;;6.98;32.69
72330;BME280;69154;52.076;5.110;2023-05-02T05:30:22;102437.52;;;9.82;30.79
72330;BME280;69154;52.076;5.110;2023-05-02T05:32:48;102438.91;;;7.81;32.77
72330;BME280;69154;52.076;5.110;2023-05-02T05:35:13;102438.38;;;8.19;33.15
72330;BME280;69154;52.076;5.110;2023-05-02T05:37:38;102447.86;;;8.56;31.86
72330;BME280;69154;52.076;5.110;2023-05-02T05:40:04;102455.28;;;6.53;33.91
72330;BME280;69154;52.076;5.110;2023-05-02T05:42:29;102460.56;;;6.03;35.02
72330;BME280;69154;52.076;5.110;2023-05-02T05:44:54;102461.81;;;5.19;35.89
72330;BME280;69154;52.076;5.110;2023-05-02T05:47:20;102460.91;;;5.63;36.28
72330;BME280;69154;52.076;5.110;2023-05-02T05:49:45;102460.10;;;4.91;36.75
72330;BME280;69154;52.076;5.110;2023-05-02T05:52:10;102471.06;;;5.22;36.60
72330;BME280;69154;52.076;5.110;2023-05-02T05:54:36;102477.78;;;6.82;35.02
72330;BME280;69154;52.076;5.110;2023-05-02T05:57:01;102481.94;;;7.12;33.07
72330;BME280;69154;52.076;5.110;2023-05-02T05:59:26;102483.73;;;9.33;30.45
72330;BME280;69154;52.076;5.110;2023-05-02T06:01:52;102485.22;;;6.69;31.03
72330;BME280;69154;52.076;5.110;2023-05-02T06:04:17;102496.41;;;5.99;33.25
72330;BME280;69154;52.076;5.110;2023-05-02T06:06:42;102502.03;;;6.38;32.12
72330;BME280;69154;52.076;5.110;2023-05-02T06:09:08;102503.69;;;7.47;30.86
72330;BME280;69154;52.076;5.110;2023-05-02T06:11:33;102510.15;;;6.76;31.29
72330;BME280;69154;52.076;5.110;2023-05-02T06:13:58;102508.20;;;7.86;29.88
72330;BME280;69154;52.076;5.110;2023-05-02T06:16:23;102515.07;;;8.25;30.05
72330;BME280;69154;52.076;5.110;2023-05-02T06:18:50;102522.93;;;6.80;29.64
72330;BME280;69154;52.076;5.110;2023-05-02T06:21:14;102521.27;;;6.23;30.88
72330;BME280;69154;52.076;5.110;2023-05-02T06:23:39;102521.97;;;7.61;30.53
72330;BME280;69154;52.076;5.110;2023-05-02T06:26:04;102520.52;;;4.61;33.48
72330;BME280;69154;52.076;5.110;2023-05-02T06:28:30;102528.43;;;8.19;30.56
72330;BME280;69154;52.076;5.110;2023-05-02T06:30:57;102533.66;;;5.60;31.44
72330;BME280;69154;52.076;5.110;2023-05-02T06:33:20;102532.12;;;4.68;33.70
72330;BME280;69154;52.076;5.110;2023-05-02T06:35:50;102531.38;;;4.60;32.75
72330;BME280;69154;52.076;5.110;2023-05-02T06:38:11;102534.95;;;7.42;31.28
72330;BME280;69154;52.076;5.110;2023-05-02T06:40:36;102540.67;;;8.53;29.84
72330;BME280;69154;52.076;5.110;2023-05-02T06:43:01;102545.27;;;10.56;26.95
72330;BME280;69154;52.076;5.110;2023-05-02T06:45:27;102551.37;;;10.44;25.81
72330;BME280;69154;52.076;5.110;2023-05-02T06:47:52;102556.92;;;7.95;26.47
72330;BME280;69154;52.076;5.110;2023-05-02T06:50:19;102570.19;;;8.16;28.42
72330;BME280;69154;52.076;5.110;2023-05-02T06:52:42;102576.45;;;7.72;29.62
72330;BME280;69154;52.076;5.110;2023-05-02T06:55:08;102586.17;;;7.51;30.24
72330;BME280;69154;52.076;5.110;2023-05-02T06:57:33;102583.76;;;7.19;31.42
72330;BME280;69154;52.076;5.110;2023-05-02T06:59:58;102583.44;;;6.39;32.42
72330;BME280;69154;52.076;5.110;2023-05-02T07:02:24;102595.11;;;7.25;31.92
72330;BME280;69154;52.076;5.110;2023-05-02T07:04:49;102588.20;;;5.82;32.67
72330;BME280;69154;52.076;5.110;2023-05-02T07:07:14;102595.43;;;8.45;30.72
72330;BME280;69154;52.076;5.110;2023-05-02T07:09:39;102597.68;;;8.72;30.05
72330;BME280;69154;52.076;5.110;2023-05-02T07:12:05;102604.86;;;8.11;30.21
72330;BME280;69154;52.076;5.110;2023-05-02T07:14:30;102605.95;;;7.93;30.86
72330;BME280;69154;52.076;5.110;2023-05-02T07:16:55;102608.96;;;7.42;31.19
72330;BME280;69154;52.076;5.110;2023-05-02T07:19:20;102609.32;;;7.53;31.53
72330;BME280;69154;52.076;5.110;2023-05-02T07:21:46;102615.77;;;7.03;31.74
72330;BME280;69154;52.076;5.110;2023-05-02T07:24:11;102616.56;;;8.15;30.35
72330;BME280;69154;52.076;5.110;2023-05-02T07:26:36;102624.72;;;6.20;33.31
72330;BME280;69154;52.076;5.110;2023-05-02T07:29:02;102626.60;;;5.79;34.49
72330;BME280;69154;52.076;5.110;2023-05-02T07:31:27;102629.67;;;5.21;35.15
72330;BME280;69154;52.076;5.110;2023-05-02T07:33:52;102632.65;;;2.81;37.86
72330;BME280;69154;52.076;5.110;2023-05-02T07:36:18;102634.60;;;4.87;36.84
72330;BME280;69154;52.076;5.110;2023-05-02T07:38:43;102633.09;;;4.33;35.98
72330;BME280;69154;52.076;5.110;2023-05-02T07:41:08;102639.45;;;7.57;32.53
72330;BME280;69154;52.076;5.110;2023-05-02T07:43:34;102633.19;;;6.40;32.56
72330;BME280;69154;52.076;5.110;2023-05-02T07:46:03;102639.74;;;7.93;31.64
72330;BME280;69154;52.076;5.110;2023-05-02T07:48:24;102635.93;;;10.34;29.47
72330;BME280;69154;52.076;5.110;2023-05-02T07:50:50;102641.58;;;6.88;29.19
72330;BME280;69154;52.076;5.110;2023-05-02T07:53:15;102638.99;;;9.21;28.82
72330;BME280;69154;52.076;5.110;2023-05-02T07:55:40;102640.53;;;9.62;28.04
72330;BME280;69154;52.076;5.110;2023-05-02T07:58:05;102638.05;;;9.78;27.36
72330;BME280;69154;52.076;5.110;2023-05-02T08:00:31;102645.14;;;10.68;26.49
72330;BME280;69154;52.076;5.110;2023-05-02T08:02:56;102641.85;;;9.02;27.32
72330;BME280;69154;52.076;5.110;2023-05-02T08:05:21;102646.25;;;8.73;28.19
72330;BME280;69154;52.076;5.110;2023-05-02T08:07:46;102648.02;;;10.27;26.55
72330;BME280;69154;52.076;5.110;2023-05-02T08:10:12;102649.71;;;11.68;26.32
72330;BME280;69154;52.076;5.110;2023-05-02T08:12:39;102653.12;;;9.41;26.99
72330;BME280;69154;52.076;5.110;2023-05-02T08:15:04;102658.53;;;6.51;29.48
72330;BME280;69154;52.076;5.110;2023-05-02T08:17:27;102661.65;;;10.38;27.51
72330;BME280;69154;52.076;5.110;2023-05-02T08:19:52;102658.91;;;8.85;27.27
72330;BME280;69154;52.076;5.110;2023-05-02T08:22:18;102663.16;;;12.11;25.02
72330;BME280;69154;52.076;5.110;2023-05-02T08:24:43;102670.19;;;10.05;25.29
72330;BME280;69154;52.076;5.110;2023-05-02T08:27:08;102674.08;;;9.19;25.62
72330;BME280;69154;52.076;5.110;2023-05-02T08:29:34;102678.10;;;11.29;24.84
72330;BME280;69154;52.076;5.110;2023-05-02T08:31:58;102679.24;;;9.00;25.71
72330;BME280;69154;52.076;5.110;2023-05-02T08:34:24;102684.26;;;10.10;25.67
72330;BME280;69154;52.076;5.110;2023-05-02T08:36:49;102688.16;;;9.16;26.17
72330;BME280;69154;52.076;5.110;2023-05-02T08:39:14;102686.73;;;12.52;24.34
72330;BME280;69154;52.076;5.110;2023-05-02T08:41:39;102694.49;;;12.79;23.48
72330;BME280;69154;52.076;5.110;2023-05-02T08:44:05;102697.98;;;9.82;24.95
72330;BME280;69154;52.076;5.110;2023-05-02T08:46:31;102701.63;;;9.98;24.66
72330;BME280;69154;52.076;5.110;2023-05-02T08:48:56;102698.55;;;8.20;25.91
72330;BME280;69154;52.076;5.110;2023-05-02T08:51:22;102700.49;;;11.57;24.55
72330;BME280;69154;52.076;5.110;2023-05-02T08:53:47;102702.00;;;12.76;22.74
72330;BME280;69154;52.076;5.110;2023-05-02T08:56:11;102703.71;;;10.66;24.18
72330;BME280;69154;52.076;5.110;2023-05-02T08:58:38;102709.54;;;10.86;24.07
72330;BME280;69154;52.076;5.110;2023-05-02T09:01:03;102716.61;;;6.66;27.04
72330;BME280;69154;52.076;5.110;2023-05-02T09:03:31;102712.49;;;9.64;25.67
72330;BME280;69154;52.076;5.110;2023-05-02T09:05:53;102720.42;;;8.19;25.32
72330;BME280;69154;52.076;5.110;2023-05-02T09:08:21;102722.16;;;7.51;26.58
72330;BME280;69154;52.076;5.110;2023-05-02T09:10:43;102719.95;;;9.23;25.47
72330;BME280;69154;52.076;5.110;2023-05-02T09:13:41;102719.67;;;10.88;24.21
72330;BME280;69154;52.076;5.110;2023-05-02T09:15:33;102720.23;;;8.75;26.41
72330;BME280;69154;52.076;5.110;2023-05-02T09:17:58;102722.15;;;8.58;25.79
72330;BME280;69154;52.076;5.110;2023-05-02T09:20:23;102730.03;;;9.26;26.39
72330;BME280;69154;52.076;5.110;2023-05-02T09:22:50;102730.80;;;7.81;26.23
72330;BME280;69154;52.076;5.110;2023-05-02T09:25:14;102731.65;;;6.75;26.88
72330;BME280;69154;52.076;5.110;2023-05-02T09:27:55;102731.69;;;7.50;25.51
72330;BME280;69154;52.076;5.110;2023-05-02T09:30:21;102739.02;;;8.23;26.08
72330;BME280;69154;52.076;5.110;2023-05-02T09:32:44;102741.88;;;9.63;25.98
72330;BME280;69154;52.076;5.110;2023-05-02T09:35:10;102741.31;;;6.82;25.39
72330;BME280;69154;52.076;5.110;2023-05-02T09:37:33;102743.10;;;5.51;27.37
72330;BME280;69154;52.076;5.110;2023-05-02T09:40:04;102743.51;;;6.18;26.98
72330;BME280;69154;52.076;5.110;2023-05-02T09:42:10;102743.45;;;9.89;24.88
72330;BME280;69154;52.076;5.110;2023-05-02T09:44:36;102742.23;;;11.00;23.49
72330;BME280;69154;52.076;5.110;2023-05-02T09:47:00;102742.40;;;12.43;21.41
72330;BME280;69154;52.076;5.110;2023-05-02T09:49:38;102744.27;;;15.44;18.90
72330;BME280;69154;52.076;5.110;2023-05-02T09:52:09;102738.93;;;16.90;17.14
72330;BME280;69154;52.076;5.110;2023-05-02T09:54:33;102747.38;;;14.16;18.23
72330;BME280;69154;52.076;5.110;2023-05-02T09:56:58;102749.36;;;18.49;16.73
72330;BME280;69154;52.076;5.110;2023-05-02T09:59:12;102747.85;;;17.47;16.20
72330;BME280;69154;52.076;5.110;2023-05-02T10:01:35;102739.76;;;15.90;17.09
72330;BME280;69154;52.076;5.110;2023-05-02T10:04:00;102742.62;;;17.25;16.83
72330;BME280;69154;52.076;5.110;2023-05-02T10:06:25;102744.18;;;15.20;17.41
72330;BME280;69154;52.076;5.110;2023-05-02T10:08:50;102750.96;;;12.64;18.26
72330;BME280;69154;52.076;5.110;2023-05-02T10:11:15;102758.51;;;14.82;18.55
72330;BME280;69154;52.076;5.110;2023-05-02T10:13:40;102759.20;;;15.45;17.58
72330;BME280;69154;52.076;5.110;2023-05-02T10:16:06;102761.93;;;16.98;17.07
72330;BME280;69154;52.076;5.110;2023-05-02T10:18:37;102758.97;;;18.75;16.11
72330;BME280;69154;52.076;5.110;2023-05-02T10:20:57;102758.23;;;13.06;17.43
72330;BME280;69154;52.076;5.110;2023-05-02T10:23:25;102750.04;;;14.44;16.96
72330;BME280;69154;52.076;5.110;2023-05-02T10:25:48;102754.85;;;13.21;18.70
72330;BME280;69154;52.076;5.110;2023-05-02T10:28:13;102758.47;;;15.73;17.36
72330;BME280;69154;52.076;5.110;2023-05-02T10:30:39;102757.53;;;16.72;16.67
72330;BME280;69154;52.076;5.110;2023-05-02T10:33:04;102766.30;;;13.59;18.62
72330;BME280;69154;52.076;5.110;2023-05-02T10:35:29;102764.49;;;16.54;17.32
72330;BME280;69154;52.076;5.110;2023-05-02T10:37:55;102767.74;;;15.82;16.44
72330;BME280;69154;52.076;5.110;2023-05-02T10:40:19;102770.99;;;14.70;17.60
72330;BME280;69154;52.076;5.110;2023-05-02T10:42:46;102770.00;;;16.99;16.54
72330;BME280;69154;52.076;5.110;2023-05-02T10:45:11;102774.80;;;18.40;15.42
72330;BME280;69154;52.076;5.110;2023-05-02T10:47:36;102770.37;;;17.20;16.05
72330;BME280;69154;52.076;5.110;2023-05-02T10:50:02;102778.96;;;17.55;15.48
72330;BME280;69154;52.076;5.110;2023-05-02T10:52:27;102782.06;;;10.71;20.09
72330;BME280;69154;52.076;5.110;2023-05-02T10:54:51;102782.59;;;10.38;20.68
72330;BME280;69154;52.076;5.110;2023-05-02T10:57:16;102786.56;;;11.72;20.14
72330;BME280;69154;52.076;5.110;2023-05-02T10:59:41;102785.32;;;15.09;19.72
72330;BME280;69154;52.076;5.110;2023-05-02T11:02:51;102780.10;;;18.18;16.48
72330;BME280;69154;52.076;5.110;2023-05-02T11:05:02;102781.63;;;20.75;13.92
72330;BME280;69154;52.076;5.110;2023-05-02T11:07:18;102780.74;;;18.91;14.00
72330;BME280;69154;52.076;5.110;2023-05-02T11:09:36;102782.11;;;17.87;15.01
72330;BME280;69154;52.076;5.110;2023-05-02T11:12:03;102789.76;;;19.96;14.39
72330;BME280;69154;52.076;5.110;2023-05-02T11:14:44;102784.35;;;21.57;12.70
72330;BME280;69154;52.076;5.110;2023-05-02T11:17:57;102779.83;;;19.74;13.59
72330;BME280;69154;52.076;5.110;2023-05-02T11:19:20;102789.82;;;18.23;14.19
72330;BME280;69154;52.076;5.110;2023-05-02T11:21:45;102791.52;;;16.95;14.80
72330;BME280;69154;52.076;5.110;2023-05-02T11:24:44;102793.98;;;18.17;14.55
72330;BME280;69154;52.076;5.110;2023-05-02T11:26:37;102792.13;;;21.95;13.32
72330;BME280;69154;52.076;5.110;2023-05-02T11:29:03;102797.35;;;19.05;14.73
72330;BME280;69154;52.076;5.110;2023-05-02T11:31:52;102794.54;;;15.93;15.69
72330;BME280;69154;52.076;5.110;2023-05-02T11:33:55;102795.13;;;14.36;17.16
72330;BME280;69154;52.076;5.110;2023-05-02T11:36:27;102793.04;;;18.25;15.53
72330;BME280;69154;52.076;5.110;2023-05-02T11:38:45;102796.56;;;17.67;15.91
72330;BME280;69154;52.076;5.110;2023-05-02T11:41:11;102799.26;;;19.18;14.85
72330;BME280;69154;52.076;5.110;2023-05-02T11:43:37;102799.31;;;19.90;14.55
72330;BME280;69154;52.076;5.110;2023-05-02T11:46:05;102795.71;;;21.69;12.36
72330;BME280;69154;52.076;5.110;2023-05-02T11:48:29;102790.53;;;23.27;12.58
72330;BME280;69154;52.076;5.110;2023-05-02T11:50:56;102797.05;;;23.33;12.24
72330;BME280;69154;52.076;5.110;2023-05-02T11:53:21;102804.04;;;19.26;13.25
72330;BME280;69154;52.076;5.110;2023-05-02T11:55:47;102802.76;;;20.92;13.46
72330;BME280;69154;52.076;5.110;2023-05-02T11:58:12;102804.67;;;23.19;11.84
72330;BME280;69154;52.076;5.110;2023-05-02T12:00:37;102804.11;;;20.29;13.08
72330;BME280;69154;52.076;5.110;2023-05-02T12:03:03;102812.91;;;18.49;14.12
72330;BME280;69154;52.076;5.110;2023-05-02T12:05:28;102807.49;;;20.20;13.34
72330;BME280;69154;52.076;5.110;2023-05-02T12:07:54;102815.82;;;20.70;12.70
72330;BME280;69154;52.076;5.110;2023-05-02T12:10:20;102826.33;;;18.58;13.32
72330;BME280;69154;52.076;5.110;2023-05-02T12:12:46;102821.37;;;22.23;12.49
72330;BME280;69154;52.076;5.110;2023-05-02T12:15:12;102826.79;;;25.31;11.31
72330;BME280;69154;52.076;5.110;2023-05-02T12:17:40;102822.17;;;23.25;11.17
72330;BME280;69154;52.076;5.110;2023-05-02T12:20:09;102814.39;;;24.33;11.01
72330;BME280;69154;52.076;5.110;2023-05-02T12:22:30;102815.68;;;23.92;10.68
72330;BME280;69154;52.076;5.110;2023-05-02T12:24:54;102814.29;;;24.68;10.44
72330;BME280;69154;52.076;5.110;2023-05-02T12:27:20;102823.50;;;21.40;11.20
72330;BME280;69154;52.076;5.110;2023-05-02T12:29:47;102829.10;;;21.62;11.50
72330;BME280;69154;52.076;5.110;2023-05-02T12:32:12;102831.52;;;23.74;11.71
72330;BME280;69154;52.076;5.110;2023-05-02T12:34:38;102831.31;;;27.62;9.37
72330;BME280;69154;52.076;5.110;2023-05-02T12:37:03;102836.61;;;20.73;11.59
72330;BME280;69154;52.076;5.110;2023-05-02T12:39:37;102841.78;;;17.93;13.10
72330;BME280;69154;52.076;5.110;2023-05-02T12:41:54;102843.86;;;18.93;13.37
72330;BME280;69154;52.076;5.110;2023-05-02T12:44:35;102844.68;;;17.26;14.05
72330;BME280;69154;52.076;5.110;2023-05-02T12:47:01;102841.28;;;20.24;13.21